sensor_id;sensor_type;location;lat;lon;timestamp;pressure;altitude;pressure_sealevel;temperature;humidity
33286;BME280;19656;50.096;20.014;2023-04-09T00:00:33;99684.98;;;6.95;70.00
33286;BME280;19656;50.096;20.014;2023-04-09T00:05:56;99685.33;;;6.90;70.08
33286;BME280;19656;50.096;20.014;2023-04-09T00:11:00;99682.02;;;6.94;70.23
33286;BME280;19656;50.096;20.014;2023-04-09T00:16:03;99680.81;;;6.97;70.24
33286;BME280;19656;50.096;20.014;2023-04-09T00:21:07;99678.11;;;6.99;70.18
33286;BME280;19656;50.096;20.014;2023-04-09T00:26:10;99681.23;;;7.01;70.26
33286;BME280;19656;50.096;20.014;2023-04-09T00:31:14;99678.66;;;7.03;70.04
33286;BME280;19656;50.096;20.014;2023-04-09T00:36:18;99679.77;;;6.97;70.56
33286;BME280;19656;50.096;20.014;2023-04-09T00:41:21;99680.19;;;7.00;71.22
33286;BME280;19656;50.096;20.014;2023-04-09T00:46:24;99676.98;;;7.01;70.97
33286;BME280;19656;50.096;20.014;2023-04-09T00:51:28;99674.56;;;6.99;70.99
33286;BME280;19656;50.096;20.014;2023-04-09T00:56:31;99677.09;;;7.07;71.15
33286;BME280;19656;50.096;20.014;2023-04-09T01:01:35;99673.13;;;7.09;70.92
33286;BME280;19656;50.096;20.014;2023-04-09T01:17:52;99665.64;;;7.26;71.04
33286;BME280;19656;50.096;20.014;2023-04-09T01:23:31;99663.86;;;7.26;70.57
33286;BME280;19656;50.096;20.014;2023-04-09T01:33:44;99670.83;;;7.19;71.01
33286;BME280;19656;50.096;20.014;2023-04-09T01:50:50;99673.30;;;7.33;70.88
33286;BME280;19656;50.096;20.014;2023-04-09T02:03:18;99681.03;;;7.38;70.33
33286;BME280;19656;50.096;20.014;2023-04-09T02:09:04;99677.40;;;7.27;70.24
33286;BME280;19656;50.096;20.014;2023-04-09T02:28:05;99683.93;;;7.13;70.71
33286;BME280;19656;50.096;20.014;2023-04-09T02:40:30;99679.67;;;7.14;70.59
33286;BME280;19656;50.096;20.014;2023-04-09T02:45:37;99673.02;;;7.12;70.42
33286;BME280;19656;50.096;20.014;2023-04-09T02:57:53;99675.38;;;7.06;70.36
33286;BME280;19656;50.096;20.014;2023-04-09T03:03:20;99678.96;;;7.04;70.68
33286;BME280;19656;50.096;20.014;2023-04-09T04:07:32;99677.21;;;7.22;70.45
33286;BME280;19656;50.096;20.014;2023-04-09T04:25:56;99683.40;;;7.18;70.97
33286;BME280;19656;50.096;20.014;2023-04-09T04:31:56;99687.23;;;7.24;70.62
33286;BME280;19656;50.096;20.014;2023-04-09T04:43:02;99687.80;;;7.27;70.22
33286;BME280;19656;50.096;20.014;2023-04-09T04:48:06;99690.73;;;7.24;70.29
33286;BME280;19656;50.096;20.014;2023-04-09T04:53:19;99692.77;;;7.27;70.22
33286;BME280;19656;50.096;20.014;2023-04-09T04:58:38;99701.39;;;7.28;70.26
33286;BME280;19656;50.096;20.014;2023-04-09T05:04:23;99697.59;;;7.30;70.37
33286;BME280;19656;50.096;20.014;2023-04-09T05:23:09;99708.05;;;7.52;69.96
33286;BME280;19656;50.096;20.014;2023-04-09T05:48:20;99711.70;;;7.63;69.51
33286;BME280;19656;50.096;20.014;2023-04-09T05:53:38;99716.14;;;7.66;69.62
33286;BME280;19656;50.096;20.014;2023-04-09T06:11:14;99725.84;;;7.89;69.61
33286;BME280;19656;50.096;20.014;2023-04-09T06:30:30;99731.77;;;8.17;68.88
33286;BME280;19656;50.096;20.014;2023-04-09T06:36:02;99736.15;;;8.22;68.74
33286;BME280;19656;50.096;20.014;2023-04-09T06:42:23;99739.30;;;8.18;68.76
33286;BME280;19656;50.096;20.014;2023-04-09T06:47:37;99744.72;;;8.20;68.96
33286;BME280;19656;50.096;20.014;2023-04-09T06:52:40;99744.98;;;8.31;69.02
33286;BME280;19656;50.096;20.014;2023-04-09T06:57:43;99744.02;;;8.37;68.91
33286;BME280;19656;50.096;20.014;2023-04-09T07:02:47;99748.81;;;8.46;69.02
33286;BME280;19656;50.096;20.014;2023-04-09T07:07:51;99746.83;;;8.55;68.73
33286;BME280;19656;50.096;20.014;2023-04-09T07:12:54;99749.79;;;8.77;68.39
33286;BME280;19656;50.096;20.014;2023-04-09T07:17:58;99752.67;;;9.00;67.97
33286;BME280;19656;50.096;20.014;2023-04-09T07:23:02;99750.56;;;9.19;67.59
33286;BME280;19656;50.096;20.014;2023-04-09T07:28:05;99748.59;;;9.32;67.24
33286;BME280;19656;50.096;20.014;2023-04-09T07:33:08;99752.83;;;9.51;67.01
33286;BME280;19656;50.096;20.014;2023-04-09T07:38:14;99753.83;;;9.68;66.57
33286;BME280;19656;50.096;20.014;2023-04-09T07:43:22;99749.95;;;9.90;66.82
33286;BME280;19656;50.096;20.014;2023-04-09T07:48:28;99744.86;;;10.11;65.56
33286;BME280;19656;50.096;20.014;2023-04-09T07:53:31;99744.27;;;10.19;65.14
33286;BME280;19656;50.096;20.014;2023-04-09T07:58:41;99746.25;;;10.41;65.12
33286;BME280;19656;50.096;20.014;2023-04-09T08:03:46;99748.00;;;10.52;63.64
33286;BME280;19656;50.096;20.014;2023-04-09T08:08:51;99747.19;;;10.58;63.32
33286;BME280;19656;50.096;20.014;2023-04-09T08:13:55;99747.11;;;10.59;62.74
33286;BME280;19656;50.096;20.014;2023-04-09T08:18:59;99744.76;;;10.70;62.81
33286;BME280;19656;50.096;20.014;2023-04-09T08:24:02;99747.34;;;10.82;62.63
33286;BME280;19656;50.096;20.014;2023-04-09T08:29:11;99743.71;;;11.08;62.72
33286;BME280;19656;50.096;20.014;2023-04-09T08:34:46;99743.88;;;11.28;61.63
33286;BME280;19656;50.096;20.014;2023-04-09T08:43:07;99737.58;;;11.42;61.09
33286;BME280;19656;50.096;20.014;2023-04-09T08:48:15;99745.95;;;11.42;61.03
33286;BME280;19656;50.096;20.014;2023-04-09T08:53:21;99747.91;;;11.48;60.61
33286;BME280;19656;50.096;20.014;2023-04-09T08:58:25;99747.44;;;11.54;60.24
33286;BME280;19656;50.096;20.014;2023-04-09T09:03:28;99744.29;;;11.56;60.35
33286;BME280;19656;50.096;20.014;2023-04-09T09:08:31;99745.41;;;11.72;60.03
33286;BME280;19656;50.096;20.014;2023-04-09T09:13:34;99748.33;;;11.83;60.37
33286;BME280;19656;50.096;20.014;2023-04-09T09:18:42;99746.73;;;11.87;59.53
33286;BME280;19656;50.096;20.014;2023-04-09T09:23:45;99744.84;;;11.89;59.83
33286;BME280;19656;50.096;20.014;2023-04-09T09:28:50;99751.77;;;11.95;60.02
33286;BME280;19656;50.096;20.014;2023-04-09T09:33:54;99750.64;;;12.00;59.55
33286;BME280;19656;50.096;20.014;2023-04-09T09:43:00;99743.78;;;12.11;59.29
33286;BME280;19656;50.096;20.014;2023-04-09T09:48:04;99740.19;;;12.36;59.34
33286;BME280;19656;50.096;20.014;2023-04-09T09:53:10;99730.86;;;12.55;59.12
33286;BME280;19656;50.096;20.014;2023-04-09T09:58:36;99732.42;;;12.50;58.06
33286;BME280;19656;50.096;20.014;2023-04-09T10:03:41;99728.23;;;12.52;57.34
33286;BME280;19656;50.096;20.014;2023-04-09T10:08:47;99724.60;;;12.74;57.30
33286;BME280;19656;50.096;20.014;2023-04-09T10:13:57;99717.58;;;13.04;57.17
33286;BME280;19656;50.096;20.014;2023-04-09T10:19:01;99714.48;;;13.43;55.92
33286;BME280;19656;50.096;20.014;2023-04-09T10:24:06;99713.75;;;13.52;55.50
33286;BME280;19656;50.096;20.014;2023-04-09T10:29:13;99712.69;;;13.61;54.79
33286;BME280;19656;50.096;20.014;2023-04-09T10:34:19;99713.98;;;13.54;54.92
33286;BME280;19656;50.096;20.014;2023-04-09T10:39:27;99710.83;;;13.42;54.92
33286;BME280;19656;50.096;20.014;2023-04-09T10:44:32;99707.09;;;13.28;54.96
33286;BME280;19656;50.096;20.014;2023-04-09T10:49:40;99704.13;;;13.23;54.61
33286;BME280;19656;50.096;20.014;2023-04-09T10:54:45;99705.76;;;13.20;54.44
33286;BME280;19656;50.096;20.014;2023-04-09T10:59:51;99699.84;;;13.23;53.88
33286;BME280;19656;50.096;20.014;2023-04-09T11:10:15;99699.05;;;13.42;54.01
33286;BME280;19656;50.096;20.014;2023-04-09T11:15:19;99701.36;;;13.51;53.96
33286;BME280;19656;50.096;20.014;2023-04-09T11:20:24;99691.85;;;13.68;53.52
33286;BME280;19656;50.096;20.014;2023-04-09T11:42:55;99690.20;;;13.64;53.73
33286;BME280;19656;50.096;20.014;2023-04-09T11:47:59;99694.23;;;13.65;52.76
33286;BME280;19656;50.096;20.014;2023-04-09T11:53:17;99697.77;;;13.60;51.76
33286;BME280;19656;50.096;20.014;2023-04-09T11:58:32;99698.81;;;13.52;53.36
33286;BME280;19656;50.096;20.014;2023-04-09T12:03:40;99699.05;;;13.56;53.06
33286;BME280;19656;50.096;20.014;2023-04-09T12:08:57;99701.46;;;13.55;52.41
33286;BME280;19656;50.096;20.014;2023-04-09T12:14:02;99701.29;;;13.52;52.27
33286;BME280;19656;50.096;20.014;2023-04-09T12:19:25;99707.80;;;13.59;52.16
33286;BME280;19656;50.096;20.014;2023-04-09T12:24:40;99703.28;;;13.71;52.18
33286;BME280;19656;50.096;20.014;2023-04-09T12:29:44;99699.25;;;13.84;52.12
33286;BME280;19656;50.096;20.014;2023-04-09T12:47:55;99694.13;;;13.99;50.90
33286;BME280;19656;50.096;20.014;2023-04-09T12:53:03;99691.48;;;13.99;50.98
33286;BME280;19656;50.096;20.014;2023-04-09T12:59:25;99687.07;;;14.14;52.05
33286;BME280;19656;50.096;20.014;2023-04-09T13:04:43;99693.44;;;14.20;50.81
33286;BME280;19656;50.096;20.014;2023-04-09T13:09:48;99689.56;;;14.12;50.65
33286;BME280;19656;50.096;20.014;2023-04-09T13:15:08;99684.80;;;14.03;50.42
33286;BME280;19656;50.096;20.014;2023-04-09T13:20:36;99685.44;;;13.96;50.43
33286;BME280;19656;50.096;20.014;2023-04-09T13:26:43;99683.75;;;13.94;50.92
33286;BME280;19656;50.096;20.014;2023-04-09T13:43:08;99680.61;;;13.77;50.74
33286;BME280;19656;50.096;20.014;2023-04-09T13:48:11;99682.46;;;13.79;50.88
33286;BME280;19656;50.096;20.014;2023-04-09T13:53:18;99685.05;;;13.77;50.93
33286;BME280;19656;50.096;20.014;2023-04-09T13:58:22;99679.88;;;13.80;50.58
33286;BME280;19656;50.096;20.014;2023-04-09T14:03:26;99677.79;;;13.76;49.52
33286;BME280;19656;50.096;20.014;2023-04-09T14:08:30;99677.53;;;13.75;48.84
33286;BME280;19656;50.096;20.014;2023-04-09T14:13:33;99678.84;;;13.73;48.91
33286;BME280;19656;50.096;20.014;2023-04-09T14:18:37;99675.08;;;13.74;49.08
33286;BME280;19656;50.096;20.014;2023-04-09T14:23:42;99671.88;;;13.79;49.08
33286;BME280;19656;50.096;20.014;2023-04-09T14:28:46;99663.70;;;13.79;48.90
33286;BME280;19656;50.096;20.014;2023-04-09T14:33:51;99666.25;;;13.81;49.02
33286;BME280;19656;50.096;20.014;2023-04-09T14:38:55;99665.33;;;13.79;49.38
33286;BME280;19656;50.096;20.014;2023-04-09T14:44:00;99663.91;;;13.87;50.66
33286;BME280;19656;50.096;20.014;2023-04-09T14:49:03;99659.17;;;13.96;49.69
33286;BME280;19656;50.096;20.014;2023-04-09T14:54:07;99661.17;;;13.99;49.25
33286;BME280;19656;50.096;20.014;2023-04-09T14:59:11;99657.63;;;13.98;48.87
33286;BME280;19656;50.096;20.014;2023-04-09T15:04:18;99660.23;;;13.96;48.61
33286;BME280;19656;50.096;20.014;2023-04-09T15:09:21;99657.14;;;13.94;48.81
33286;BME280;19656;50.096;20.014;2023-04-09T15:14:27;99655.39;;;13.94;49.09
33286;BME280;19656;50.096;20.014;2023-04-09T15:19:39;99653.38;;;13.95;49.76
33286;BME280;19656;50.096;20.014;2023-04-09T15:24:50;99655.54;;;13.94;50.80
33286;BME280;19656;50.096;20.014;2023-04-09T15:29:54;99653.73;;;13.95;51.30
33286;BME280;19656;50.096;20.014;2023-04-09T15:34:57;99650.85;;;13.92;52.18
33286;BME280;19656;50.096;20.014;2023-04-09T15:40:03;99646.72;;;14.04;52.37
33286;BME280;19656;50.096;20.014;2023-04-09T15:45:07;99648.50;;;14.01;51.73
33286;BME280;19656;50.096;20.014;2023-04-09T15:50:11;99649.96;;;13.95;51.78
33286;BME280;19656;50.096;20.014;2023-04-09T15:55:15;99648.45;;;13.88;51.79
33286;BME280;19656;50.096;20.014;2023-04-09T16:00:19;99651.27;;;13.81;51.66
33286;BME280;19656;50.096;20.014;2023-04-09T16:05:26;99653.16;;;13.74;51.46
33286;BME280;19656;50.096;20.014;2023-04-09T16:10:29;99657.77;;;13.63;51.57
33286;BME280;19656;50.096;20.014;2023-04-09T16:15:33;99661.48;;;13.56;51.75
33286;BME280;19656;50.096;20.014;2023-04-09T16:20:37;99666.65;;;13.47;51.86
33286;BME280;19656;50.096;20.014;2023-04-09T16:25:41;99669.28;;;13.39;52.03
33286;BME280;19656;50.096;20.014;2023-04-09T16:30:49;99667.29;;;13.37;53.03
33286;BME280;19656;50.096;20.014;2023-04-09T16:35:59;99663.71;;;13.40;52.96
33286;BME280;19656;50.096;20.014;2023-04-09T16:41:03;99664.10;;;13.31;52.80
33286;BME280;19656;50.096;20.014;2023-04-09T16:46:08;99667.50;;;13.22;53.09
33286;BME280;19656;50.096;20.014;2023-04-09T16:51:13;99667.45;;;13.14;53.13
33286;BME280;19656;50.096;20.014;2023-04-09T16:56:16;99670.70;;;13.08;53.55
33286;BME280;19656;50.096;20.014;2023-04-09T17:01:20;99672.38;;;13.01;53.81
33286;BME280;19656;50.096;20.014;2023-04-09T17:06:26;99674.52;;;12.95;54.50
33286;BME280;19656;50.096;20.014;2023-04-09T17:11:30;99678.52;;;12.94;54.38
33286;BME280;19656;50.096;20.014;2023-04-09T17:16:34;99677.89;;;12.89;54.19
33286;BME280;19656;50.096;20.014;2023-04-09T17:21:40;99679.36;;;12.83;54.34
33286;BME280;19656;50.096;20.014;2023-04-09T17:26:48;99686.00;;;12.76;54.56
33286;BME280;19656;50.096;20.014;2023-04-09T17:31:52;99693.31;;;12.70;54.76
33286;BME280;19656;50.096;20.014;2023-04-09T17:36:59;99697.36;;;12.68;55.65
33286;BME280;19656;50.096;20.014;2023-04-09T17:42:07;99702.91;;;12.73;56.59
33286;BME280;19656;50.096;20.014;2023-04-09T17:47:11;99704.84;;;12.65;56.15
33286;BME280;19656;50.096;20.014;2023-04-09T17:52:15;99712.39;;;12.52;56.48
33286;BME280;19656;50.096;20.014;2023-04-09T17:57:27;99717.10;;;12.41;56.74
33286;BME280;19656;50.096;20.014;2023-04-09T18:02:35;99726.32;;;12.33;57.21
33286;BME280;19656;50.096;20.014;2023-04-09T18:07:40;99730.39;;;12.27;57.42
33286;BME280;19656;50.096;20.014;2023-04-09T18:12:56;99731.33;;;12.23;57.79
33286;BME280;19656;50.096;20.014;2023-04-09T18:18:08;99731.90;;;12.31;58.29
33286;BME280;19656;50.096;20.014;2023-04-09T18:23:20;99732.48;;;12.31;57.60
33286;BME280;19656;50.096;20.014;2023-04-09T18:28:35;99737.90;;;12.20;57.75
33286;BME280;19656;50.096;20.014;2023-04-09T18:33:39;99745.80;;;12.09;58.06
33286;BME280;19656;50.096;20.014;2023-04-09T18:38:46;99750.19;;;12.01;58.25
33286;BME280;19656;50.096;20.014;2023-04-09T18:43:55;99757.04;;;11.93;58.69
33286;BME280;19656;50.096;20.014;2023-04-09T18:49:00;99757.66;;;11.85;59.06
33286;BME280;19656;50.096;20.014;2023-04-09T18:54:08;99764.27;;;11.78;59.30
33286;BME280;19656;50.096;20.014;2023-04-09T18:59:14;99768.30;;;11.72;59.62
33286;BME280;19656;50.096;20.014;2023-04-09T19:04:19;99772.23;;;11.66;59.90
33286;BME280;19656;50.096;20.014;2023-04-09T19:09:26;99767.84;;;11.61;60.13
33286;BME280;19656;50.096;20.014;2023-04-09T19:14:32;99769.67;;;11.60;60.15
33286;BME280;19656;50.096;20.014;2023-04-09T19:19:39;99771.31;;;11.66;60.78
33286;BME280;19656;50.096;20.014;2023-04-09T19:24:43;99779.30;;;11.73;60.80
33286;BME280;19656;50.096;20.014;2023-04-09T19:30:21;99779.16;;;11.65;60.67
33286;BME280;19656;50.096;20.014;2023-04-09T19:43:04;99780.84;;;11.51;61.51
33286;BME280;19656;50.096;20.014;2023-04-09T19:48:22;99779.15;;;11.43;61.55
33286;BME280;19656;50.096;20.014;2023-04-09T22:05:31;99798.21;;;10.80;63.47
33286;BME280;19656;50.096;20.014;2023-04-09T22:10:37;99797.65;;;10.81;63.59
33286;BME280;19656;50.096;20.014;2023-04-09T22:15:41;99794.81;;;10.84;63.84
33286;BME280;19656;50.096;20.014;2023-04-09T22:20:59;99798.45;;;10.86;63.88
33286;BME280;19656;50.096;20.014;2023-04-09T22:26:37;99795.92;;;10.83;64.21
33286;BME280;19656;50.096;20.014;2023-04-09T22:31:43;99790.40;;;10.84;64.27
33286;BME280;19656;50.096;20.014;2023-04-09T22:36:48;99793.10;;;10.83;64.41
33286;BME280;19656;50.096;20.014;2023-04-09T22:42:50;99795.46;;;10.82;64.58
33286;BME280;19656;50.096;20.014;2023-04-09T22:48:04;99797.55;;;10.79;64.71
33286;BME280;19656;50.096;20.014;2023-04-09T22:53:09;99795.00;;;10.77;64.65
33286;BME280;19656;50.096;20.014;2023-04-09T22:58:14;99793.39;;;10.74;64.82
33286;BME280;19656;50.096;20.014;2023-04-09T23:03:18;99792.16;;;10.70;64.83
33286;BME280;19656;50.096;20.014;2023-04-09T23:08:22;99791.43;;;10.63;64.90
33286;BME280;19656;50.096;20.014;2023-04-09T23:13:26;99790.94;;;10.62;64.92
33286;BME280;19656;50.096;20.014;2023-04-09T23:18:30;99793.80;;;10.66;64.86
33286;BME280;19656;50.096;20.014;2023-04-09T23:23:35;99793.63;;;10.77;64.68
33286;BME280;19656;50.096;20.014;2023-04-09T23:28:39;99792.32;;;10.78;64.55
33286;BME280;19656;50.096;20.014;2023-04-09T23:33:43;99791.94;;;10.68;64.45
33286;BME280;19656;50.096;20.014;2023-04-09T23:39:01;99793.21;;;10.56;64.62
33286;BME280;19656;50.096;20.014;2023-04-09T23:44:06;99787.98;;;10.47;64.91
33286;BME280;19656;50.096;20.014;2023-04-09T23:49:10;99781.95;;;10.51;64.73
33286;BME280;19656;50.096;20.014;2023-04-09T23:54:16;99776.94;;;10.52;64.41
33286;BME280;19656;50.096;20.014;2023-04-09T23:59:21;99774.89;;;10.50;64.31
